Time;durP1;ratioP1;P1;durP2;ratioP2;P2;SDS_P1;SDS_P2;PMS_P1;PMS_P2;Temp;Humidity;BMP_temperature;BMP_pressure;BME280_temperature;BME280_humidity;BME280_pressure;Samples;Min_cycle;Max_cycle;Signal;HPM_P1;HPM_P2
2022/08/21 00:02:28;;;;;;;6.72;3.50;;;;;;;18.41;100.00;92619.44;5029285;28;20111;-76
2022/08/21 00:04:55;;;;;;;5.60;3.50;;;;;;;18.46;100.00;92626.41;5029763;28;20038;-76
2022/08/21 00:07:22;;;;;;;6.78;3.25;;;;;;;18.36;100.00;92605.69;5029363;28;20049;-76
2022/08/21 00:09:49;;;;;;;6.65;4.00;;;;;;;18.43;100.00;92608.75;5029450;28;20489;-76
2022/08/21 00:12:16;;;;;;;7.80;3.42;;;;;;;18.34;100.00;92602.59;5029477;28;20099;-76
2022/08/21 00:14:44;;;;;;;5.65;3.10;;;;;;;18.42;100.00;92615.00;5029198;28;20038;-76
2022/08/21 00:17:11;;;;;;;6.38;3.58;;;;;;;18.44;100.00;92618.09;5029475;28;20042;-76
2022/08/21 00:19:37;;;;;;;8.20;3.90;;;;;;;18.43;100.00;92622.53;5029386;28;20045;-76
2022/08/21 00:22:04;;;;;;;8.30;3.53;;;;;;;18.46;100.00;92618.59;5029300;28;20049;-76
2022/08/21 00:24:36;;;;;;;5.38;3.38;;;;;;;18.52;100.00;92630.50;5029004;28;20045;-76
2022/08/21 00:27:02;;;;;;;5.45;3.03;;;;;;;18.51;100.00;92615.97;5029257;28;20049;-76
2022/08/21 00:29:29;;;;;;;5.40;3.28;;;;;;;18.56;100.00;92633.34;5029107;28;20045;-75
2022/08/21 00:31:58;;;;;;;8.23;3.17;;;;;;;18.58;100.00;92627.88;5029143;28;20045;-75
2022/08/21 00:34:25;;;;;;;5.32;3.25;;;;;;;18.57;100.00;92621.91;5028995;28;20050;-76
2022/08/21 00:36:51;;;;;;;6.25;2.60;;;;;;;18.44;100.00;92605.09;5028898;28;20088;-76
2022/08/21 00:39:18;;;;;;;4.50;2.83;;;;;;;18.52;100.00;92601.16;5029110;28;20048;-76
2022/08/21 00:41:45;;;;;;;6.20;2.58;;;;;;;18.49;100.00;92606.88;5028887;28;20053;-76
2022/08/21 00:44:14;;;;;;;4.70;2.65;;;;;;;18.56;100.00;92615.91;5030950;28;20049;-76
2022/08/21 00:46:42;;;;;;;4.47;2.92;;;;;;;18.51;100.00;92615.97;5029039;28;20461;-76
2022/08/21 00:49:13;;;;;;;5.65;2.88;;;;;;;18.48;100.00;92607.94;5028885;28;20054;-76
2022/08/21 00:51:44;;;;;;;6.65;3.22;;;;;;;18.45;100.00;92613.66;5028726;28;20041;-75
2022/08/21 00:54:13;;;;;;;6.07;2.83;;;;;;;18.47;100.00;92614.94;5028957;28;20417;-76
2022/08/21 00:56:40;;;;;;;8.25;3.35;;;;;;;18.37;100.00;92591.66;5028910;28;20049;-75
2022/08/21 00:59:07;;;;;;;5.28;4.05;;;;;;;18.42;100.00;92605.38;5028625;28;20488;-76
2022/08/21 01:01:34;;;;;;;4.38;2.90;;;;;;;18.34;100.00;92608.56;5028475;28;20051;-76
2022/08/21 01:04:01;;;;;;;5.82;3.05;;;;;;;18.35;100.00;92598.94;5028403;28;20049;-75
2022/08/21 01:06:29;;;;;;;8.05;3.75;;;;;;;18.34;100.00;92592.97;5028279;28;20493;-76
2022/08/21 01:08:56;;;;;;;6.65;3.05;;;;;;;18.32;100.00;92591.69;5028802;28;20067;-76
2022/08/21 01:11:22;;;;;;;5.65;3.13;;;;;;;18.24;100.00;92586.03;5028214;28;20045;-76
2022/08/21 01:13:51;;;;;;;7.03;2.85;;;;;;;18.27;100.00;92587.28;5028329;28;20038;-76
2022/08/21 01:16:21;;;;;;;7.53;3.20;;;;;;;18.20;100.00;92579.03;5028267;28;20037;-76
2022/08/21 01:18:49;;;;;;;5.10;3.28;;;;;;;18.18;100.00;92583.75;5028382;28;20465;-76
2022/08/21 01:21:20;;;;;;;5.85;3.08;;;;;;;18.14;100.00;92580.91;5028566;28;20056;-76
2022/08/21 01:23:49;;;;;;;8.30;3.38;;;;;;;18.15;100.00;92572.84;5028180;28;20101;-76
2022/08/21 01:26:23;;;;;;;7.07;3.08;;;;;;;18.07;100.00;92562.25;5028231;28;20042;-76
2022/08/21 01:28:57;;;;;;;5.25;2.85;;;;;;;17.93;100.00;92551.66;5028226;28;20549;-76
2022/08/21 01:31:27;;;;;;;5.32;2.97;;;;;;;18.07;100.00;92576.03;5028396;28;20049;-75
2022/08/21 01:33:55;;;;;;;5.55;2.50;;;;;;;18.19;100.00;92586.06;5028469;28;20124;-76
2022/08/21 01:36:24;;;;;;;4.97;2.92;;;;;;;18.12;100.00;92575.19;5028015;28;20061;-76
2022/08/21 01:38:51;;;;;;;6.22;3.33;;;;;;;17.97;100.00;92556.03;5028289;28;20049;-76
2022/08/21 01:41:18;;;;;;;4.97;2.90;;;;;;;18.06;100.00;92571.88;5030542;28;20132;-76
2022/08/21 01:43:47;;;;;;;7.43;3.55;;;;;;;18.04;100.00;92568.72;5034436;28;20049;-76
2022/08/21 01:46:14;;;;;;;7.43;3.95;;;;;;;18.07;100.00;92576.03;5032676;28;20049;-75
2022/08/21 01:48:41;;;;;;;6.28;4.35;;;;;;;18.02;100.00;92573.44;5032808;28;20117;-75
2022/08/21 01:51:08;;;;;;;6.40;3.67;;;;;;;18.13;100.00;92576.75;5050211;28;20044;-76
2022/08/21 01:53:37;;;;;;;8.00;3.97;;;;;;;18.06;100.00;92571.88;5052369;28;20050;-76
2022/08/21 01:56:07;;;;;;;5.57;3.42;;;;;;;18.13;100.00;92580.13;5052582;28;20095;-75
2022/08/21 01:58:34;;;;;;;6.10;4.25;;;;;;;18.16;100.00;92578.81;5052246;28;20662;-75
2022/08/21 02:01:01;;;;;;;7.15;4.45;;;;;;;18.03;100.00;92567.97;5052556;28;20055;-75
2022/08/21 02:03:28;;;;;;;7.53;4.07;;;;;;;18.10;100.00;92577.31;5051975;28;20048;-74
2022/08/21 02:05:55;;;;;;;6.30;3.78;;;;;;;18.11;100.00;92574.44;5052148;28;20073;-74
2022/08/21 02:08:23;;;;;;;9.05;4.00;;;;;;;18.10;100.00;92575.47;5052080;28;20049;-75
2022/08/21 02:10:52;;;;;;;6.57;4.10;;;;;;;18.11;100.00;92576.25;5052275;28;20081;-76
2022/08/21 02:13:19;;;;;;;6.15;4.10;;;;;;;18.05;100.00;92574.72;5052157;28;20135;-76
2022/08/21 02:15:46;;;;;;;6.55;4.55;;;;;;;18.04;100.00;92576.53;5052105;28;20091;-75
2022/08/21 02:18:14;;;;;;;7.55;3.67;;;;;;;18.07;100.00;92583.81;5051781;28;21666;-75
2022/08/21 02:20:43;;;;;;;6.50;3.83;;;;;;;18.07;100.00;92589.03;5051907;28;20060;-75
2022/08/21 02:23:11;;;;;;;7.95;3.97;;;;;;;18.12;100.00;92596.78;5051983;28;20052;-75
2022/08/21 02:25:39;;;;;;;6.25;3.80;;;;;;;18.16;100.00;92597.00;5052158;28;20080;-74
2022/08/21 02:28:09;;;;;;;6.32;3.13;;;;;;;18.16;100.00;92589.22;5051564;28;20500;-75
2022/08/21 02:30:39;;;;;;;5.20;3.50;;;;;;;18.11;100.00;92582.25;5052077;28;20041;-74
2022/08/21 02:33:06;;;;;;;5.13;2.97;;;;;;;18.08;100.00;92577.56;5051777;28;20045;-74
2022/08/21 02:35:33;;;;;;;7.85;3.03;;;;;;;18.04;100.00;92584.31;5051632;28;20099;-75
2022/08/21 02:38:04;;;;;;;6.60;3.20;;;;;;;18.01;100.00;92580.44;5051673;28;20099;-76
2022/08/21 02:40:35;;;;;;;5.45;3.00;;;;;;;17.82;100.00;92569.16;5051659;28;20111;-74
2022/08/21 02:43:04;;;;;;;8.00;3.20;;;;;;;17.66;100.00;92561.47;5051919;28;20123;-75
2022/08/21 02:45:33;;;;;;;7.57;3.13;;;;;;;17.72;100.00;92580.38;5051716;28;20092;-74
2022/08/21 02:48:03;;;;;;;6.93;3.75;;;;;;;17.68;100.00;92587.19;5051777;28;20057;-73
2022/08/21 02:50:31;;;;;;;6.32;3.40;;;;;;;17.63;100.00;92586.16;5051576;28;20041;-74
2022/08/21 02:52:58;;;;;;;6.13;3.92;;;;;;;17.57;100.00;92576.84;5050047;28;20052;-75
2022/08/21 02:55:28;;;;;;;6.72;3.53;;;;;;;17.52;100.00;92581.28;5051587;28;20063;-75
2022/08/21 02:57:55;;;;;;;4.88;3.50;;;;;;;16.99;100.00;92572.16;5051409;28;20432;-75
2022/08/21 03:00:24;;;;;;;8.23;4.10;;;;;;;17.01;100.00;92586.41;5051037;28;20053;-75
2022/08/21 03:02:55;;;;;;;5.80;3.90;;;;;;;17.11;100.00;92590.81;5051336;28;20141;-74
2022/08/21 03:05:23;;;;;;;6.30;4.25;;;;;;;17.17;100.00;92592.34;5037169;28;20478;-73
2022/08/21 03:07:51;;;;;;;7.00;3.60;;;;;;;17.14;100.00;92579.13;5050986;28;20041;-73
2022/08/21 03:10:19;;;;;;;6.40;4.03;;;;;;;17.30;100.00;92588.38;5051123;28;20048;-73
2022/08/21 03:12:46;;;;;;;8.32;4.30;;;;;;;17.31;100.00;92579.56;5051055;28;20068;-73
2022/08/21 03:15:17;;;;;;;7.57;3.78;;;;;;;17.32;100.00;92577.75;5050951;28;20053;-73
2022/08/21 03:17:44;;;;;;;8.73;4.97;;;;;;;17.44;100.00;92587.81;5050865;28;20168;-73
2022/08/21 03:20:22;;;;;;;8.43;4.80;;;;;;;17.47;100.00;92580.28;5050750;28;20101;-73
2022/08/21 03:22:49;;;;;;;7.70;4.40;;;;;;;17.50;100.00;92571.19;5050480;28;20084;-73
2022/08/21 03:25:16;;;;;;;8.00;4.65;;;;;;;17.54;100.00;92574.78;5050874;28;20565;-73
2022/08/21 03:27:43;;;;;;;8.23;4.75;;;;;;;17.59;100.00;92579.94;5046532;28;20133;-73
2022/08/21 03:30:11;;;;;;;8.68;4.65;;;;;;;17.48;100.00;92557.66;5041070;28;20053;-73
2022/08/21 03:32:38;;;;;;;8.35;5.35;;;;;;;17.46;100.00;92544.94;5050488;28;20563;-73
2022/08/21 03:35:06;;;;;;;9.88;5.20;;;;;;;17.68;100.00;92582.75;5050335;28;20049;-73
2022/08/21 03:37:34;;;;;;;9.85;4.72;;;;;;;17.70;100.00;92579.88;5050611;28;20078;-73
2022/08/21 03:40:01;;;;;;;6.28;4.55;;;;;;;17.70;100.00;92585.06;5050624;28;20045;-73
2022/08/21 03:42:28;;;;;;;7.75;4.50;;;;;;;17.68;100.00;92585.34;5049149;28;20096;-73
2022/08/21 03:44:54;;;;;;;9.13;5.72;;;;;;;17.66;100.00;92587.44;5023056;28;20502;-73
2022/08/21 03:47:22;;;;;;;7.55;4.50;;;;;;;17.65;100.00;92590.28;5037792;28;20049;-74
2022/08/21 03:49:49;;;;;;;7.55;4.50;;;;;;;17.63;100.00;92588.75;5050448;28;20051;-74
2022/08/21 03:52:16;;;;;;;8.85;4.82;;;;;;;17.49;100.00;92567.00;5045332;28;20045;-73
2022/08/21 03:54:45;;;;;;;6.85;3.72;;;;;;;17.49;100.00;92580.78;5035850;28;20048;-74
2022/08/21 03:57:12;;;;;;;8.77;4.05;;;;;;;17.47;100.00;92582.09;5049645;28;20104;-74
2022/08/21 03:59:39;;;;;;;6.10;3.92;;;;;;;17.44;100.00;92583.41;5042729;28;20049;-74
2022/08/21 04:02:07;;;;;;;8.95;4.43;;;;;;;17.39;100.00;92586.00;5045952;28;20045;-73
2022/08/21 04:04:34;;;;;;;8.13;3.75;;;;;;;17.28;100.00;92576.72;5038864;28;20049;-73
2022/08/21 04:07:02;;;;;;;6.00;3.70;;;;;;;17.36;100.00;92600.31;5041142;28;20390;-73
2022/08/21 04:09:29;;;;;;;7.32;3.97;;;;;;;17.36;100.00;92595.13;5049513;28;20041;-73
2022/08/21 04:11:59;;;;;;;7.72;4.32;;;;;;;17.36;100.00;92595.13;5046943;28;20047;-73
2022/08/21 04:14:26;;;;;;;7.97;3.83;;;;;;;17.38;100.00;92594.06;5045876;28;20099;-73
2022/08/21 04:16:53;;;;;;;7.40;4.35;;;;;;;17.35;100.00;92596.16;5049671;28;20040;-74
2022/08/21 04:19:20;;;;;;;6.82;5.10;;;;;;;17.30;100.00;92592.78;5045810;28;20103;-73
2022/08/21 04:21:47;;;;;;;6.70;4.68;;;;;;;17.28;100.00;92600.88;5049350;28;20496;-74
2022/08/21 04:24:13;;;;;;;8.10;4.93;;;;;;;17.23;100.00;92599.06;5042809;28;20100;-74
2022/08/21 04:26:40;;;;;;;7.60;5.10;;;;;;;17.34;100.00;92615.38;5046052;28;20087;-73
2022/08/21 04:29:08;;;;;;;9.90;5.65;;;;;;;17.31;100.00;92604.75;5037338;28;20049;-74
2022/08/21 04:31:36;;;;;;;10.05;5.95;;;;;;;17.44;100.00;92606.75;5041717;28;20045;-74
2022/08/21 04:34:03;;;;;;;12.75;6.72;;;;;;;17.45;100.00;92608.31;5035743;28;20054;-74
2022/08/21 04:36:30;;;;;;;13.05;7.53;;;;;;;17.50;100.00;92607.53;5030105;28;20120;-74
2022/08/21 04:38:56;;;;;;;12.52;7.95;;;;;;;17.54;100.00;92611.13;5037312;28;20566;-73
2022/08/21 04:41:23;;;;;;;12.82;8.55;;;;;;;17.57;100.00;92613.19;5046502;28;20045;-73
2022/08/21 04:43:51;;;;;;;13.63;7.50;;;;;;;17.56;100.00;92608.25;5049060;28;20515;-73
2022/08/21 04:46:19;;;;;;;12.98;8.05;;;;;;;17.69;100.00;92619.88;5042234;28;20096;-73
2022/08/21 04:48:46;;;;;;;12.85;6.80;;;;;;;17.68;100.00;92624.28;5048053;28;20041;-73
2022/08/21 04:51:18;;;;;;;13.45;7.28;;;;;;;17.71;100.00;92613.38;5049451;28;20182;-73
2022/08/21 04:53:50;;;;;;;10.40;7.13;;;;;;;17.79;100.00;92624.25;5048804;28;20045;-73
2022/08/21 04:56:22;;;;;;;11.40;6.72;;;;;;;17.83;100.00;92623.44;5048748;28;20049;-74
2022/08/21 04:58:52;;;;;;;11.35;6.85;;;;;;;17.89;100.00;92622.38;5048992;28;20111;-73
2022/08/21 05:01:23;;;;;;;10.75;6.50;;;;;;;17.86;100.00;92617.72;5048148;28;20052;-73
2022/08/21 05:03:53;;;;;;;8.88;6.38;;;;;;;17.98;100.00;92629.59;5038690;28;20053;-72
2022/08/21 05:06:21;;;;;;;8.60;5.78;;;;;;;17.98;100.00;92621.78;5048780;28;20523;-73
2022/08/21 05:08:52;;;;;;;11.48;6.15;;;;;;;18.00;100.00;92627.47;5040599;28;20100;-73
2022/08/21 05:11:19;;;;;;;11.10;6.60;;;;;;;18.06;100.00;92631.66;5045010;28;20049;-73
2022/08/21 05:13:46;;;;;;;10.02;6.40;;;;;;;18.11;100.00;92630.84;5048527;28;20045;-73
2022/08/21 05:16:13;;;;;;;12.43;6.47;;;;;;;18.10;100.00;92618.91;5048248;28;20136;-73
2022/08/21 05:18:41;;;;;;;10.88;6.18;;;;;;;18.17;100.00;92624.56;5049069;28;20053;-73
2022/08/21 05:21:09;;;;;;;8.13;5.88;;;;;;;18.21;100.00;92622.19;5048562;28;20049;-73
2022/08/21 05:23:36;;;;;;;11.43;6.68;;;;;;;18.05;100.00;92606.66;5048922;28;20082;-73
2022/08/21 05:26:04;;;;;;;11.25;7.82;;;;;;;18.16;100.00;92621.16;5048598;28;20083;-73
2022/08/21 05:28:31;;;;;;;11.63;6.70;;;;;;;18.25;100.00;92620.59;5049129;28;20098;-74
2022/08/21 05:30:57;;;;;;;11.15;6.38;;;;;;;18.22;100.00;92624.50;5049147;28;20114;-74
2022/08/21 05:33:24;;;;;;;13.70;6.28;;;;;;;18.29;100.00;92624.97;5048538;28;20049;-74
2022/08/21 05:35:55;;;;;;;9.13;5.93;;;;;;;18.25;100.00;92623.97;5048906;28;20053;-73
2022/08/21 05:38:22;;;;;;;9.82;6.10;;;;;;;18.29;100.00;92624.97;5048842;28;20056;-73
2022/08/21 05:40:49;;;;;;;10.07;5.90;;;;;;;18.35;100.00;92617.94;5048551;28;20045;-73
2022/08/21 05:43:16;;;;;;;13.13;7.47;;;;;;;18.37;100.00;92613.22;5048684;28;20111;-74
2022/08/21 05:45:43;;;;;;;9.55;6.85;;;;;;;18.34;100.00;92598.19;5048504;28;20057;-74
2022/08/21 05:48:12;;;;;;;8.85;6.32;;;;;;;18.52;100.00;92612.31;5048691;28;20057;-74
2022/08/21 05:50:39;;;;;;;9.35;6.28;;;;;;;18.63;100.00;92615.59;5048947;28;20187;-74
2022/08/21 05:53:07;;;;;;;9.10;5.68;;;;;;;18.65;100.00;92604.94;5048576;28;20053;-75
2022/08/21 05:55:34;;;;;;;10.95;6.70;;;;;;;18.78;100.00;92611.28;5048490;28;20566;-73
2022/08/21 05:58:01;;;;;;;8.63;6.10;;;;;;;18.84;100.00;92607.59;5048553;28;20049;-73
2022/08/21 06:00:28;;;;;;;10.35;6.72;;;;;;;19.01;100.00;92622.00;5048339;28;20037;-72
2022/08/21 06:02:54;;;;;;;10.48;7.43;;;;;;;19.07;100.00;92624.31;5048493;28;20053;-73
2022/08/21 06:05:22;;;;;;;9.90;6.32;;;;;;;19.18;100.00;92624.97;5048293;28;20497;-72
2022/08/21 06:07:48;;;;;;;11.25;6.07;;;;;;;19.06;100.00;92601.94;5048765;28;20056;-72
2022/08/21 06:10:17;;;;;;;11.15;6.65;;;;;;;19.26;100.00;92626.19;5048810;28;20053;-73
2022/08/21 06:12:43;;;;;;;9.77;6.10;;;;;;;19.29;100.00;92617.03;5048756;28;20071;-75
2022/08/21 06:15:11;;;;;;;8.85;6.53;;;;;;;19.31;100.00;92617.53;5047918;28;20095;-75
2022/08/21 06:17:38;;;;;;;10.73;6.32;;;;;;;19.19;100.00;92616.13;5047402;28;20126;-75
2022/08/21 06:20:05;;;;;;;9.35;6.22;;;;;;;19.37;100.00;92621.63;5048401;28;20052;-75
2022/08/21 06:22:32;;;;;;;10.25;6.22;;;;;;;19.47;100.00;92618.91;5048034;28;20052;-75
2022/08/21 06:24:59;;;;;;;10.27;6.25;;;;;;;19.40;100.00;92600.25;5048190;28;20490;-75
2022/08/21 06:27:27;;;;;;;11.48;6.15;;;;;;;19.61;100.00;92613.78;5050830;28;20385;-74
2022/08/21 06:29:56;;;;;;;10.50;7.35;;;;;;;19.16;100.00;92610.69;5051761;28;20049;-73
2022/08/21 06:32:22;;;;;;;11.30;6.82;;;;;;;18.61;100.00;92603.94;5051914;28;20408;-73
2022/08/21 06:34:49;;;;;;;10.90;7.53;;;;;;;18.89;100.00;92599.72;5051851;28;20049;-73
2022/08/21 06:37:16;;;;;;;10.02;7.00;;;;;;;18.96;100.00;92602.78;5051638;28;20045;-73
2022/08/21 06:39:43;;;;;;;9.23;6.18;;;;;;;19.31;100.00;92601.91;5051739;28;20041;-73
2022/08/21 06:42:14;;;;;;;13.00;6.32;;;;;;;19.79;100.00;92613.28;5051590;28;20504;-73
2022/08/21 06:44:42;;;;;;;12.75;6.63;;;;;;;20.11;100.00;92612.63;5051673;28;20053;-72
2022/08/21 06:47:09;;;;;;;9.88;5.80;;;;;;;20.18;100.00;92596.59;5037626;28;20497;-72
2022/08/21 06:49:36;;;;;;;9.15;5.88;;;;;;;20.64;100.00;92617.81;5051796;28;20095;-72
2022/08/21 06:52:04;;;;;;;11.40;5.72;;;;;;;20.97;100.00;92633.44;5051262;28;20056;-73
2022/08/21 06:54:31;;;;;;;10.73;5.47;;;;;;;21.22;100.00;92632.22;5050882;28;20045;-73
2022/08/21 06:56:58;;;;;;;11.23;5.70;;;;;;;21.34;100.00;92629.09;5050572;28;20126;-72
2022/08/21 06:59:24;;;;;;;9.95;5.75;;;;;;;21.46;100.00;92644.28;5049103;28;20107;-73
2022/08/21 07:01:52;;;;;;;8.55;5.30;;;;;;;21.56;100.00;92642.53;5051344;28;20044;-74
2022/08/21 07:04:19;;;;;;;9.50;4.65;;;;;;;21.52;100.00;92641.56;5051360;28;20107;-73
2022/08/21 07:06:46;;;;;;;8.90;4.70;;;;;;;21.57;100.00;92646.69;5051224;28;20055;-73
2022/08/21 07:09:13;;;;;;;9.88;5.43;;;;;;;21.47;100.00;92642.44;5050982;28;20063;-72
2022/08/21 07:11:40;;;;;;;10.40;4.95;;;;;;;21.56;100.00;92632.84;5050853;28;20045;-73
2022/08/21 07:14:06;;;;;;;11.70;6.03;;;;;;;21.79;100.00;92638.16;5050680;28;20102;-74
2022/08/21 07:16:33;;;;;;;23.23;17.63;;;;;;;21.41;100.00;92640.97;5050884;28;20099;-75
2022/08/21 07:19:01;;;;;;;23.88;19.05;;;;;;;20.72;100.00;92627.56;5051040;28;20049;-75
2022/08/21 07:21:28;;;;;;;15.20;10.40;;;;;;;20.76;100.00;92625.16;5038189;28;20535;-74
2022/08/21 07:23:55;;;;;;;11.60;6.63;;;;;;;20.70;100.00;92603.59;5032517;28;20054;-74
2022/08/21 07:26:24;;;;;;;10.07;7.50;;;;;;;21.09;100.00;92619.91;5039414;28;20127;-74
2022/08/21 07:28:51;;;;;;;12.75;5.50;;;;;;;21.42;100.00;92619.81;5030915;28;20096;-74
2022/08/21 07:31:21;;;;;;;9.50;5.00;;;;;;;21.11;100.00;92614.41;5030396;28;20628;-74
2022/08/21 07:33:48;;;;;;;12.10;5.35;;;;;;;21.24;100.00;92608.38;5044977;28;20132;-75
2022/08/21 07:36:17;;;;;;;24.88;13.48;;;;;;;20.97;100.00;92617.78;5050810;28;20045;-75
2022/08/21 07:38:44;;;;;;;19.65;11.60;;;;;;;20.73;100.00;92607.47;5049821;28;20079;-74
2022/08/21 07:41:15;;;;;;;12.55;7.07;;;;;;;20.31;100.00;92610.00;5050208;28;20049;-74
2022/08/21 07:43:43;;;;;;;12.20;6.30;;;;;;;20.03;100.00;92595.00;5050081;28;20139;-75
2022/08/21 07:46:10;;;;;;;16.13;7.78;;;;;;;20.45;100.00;92589.16;5050202;28;20049;-74
2022/08/21 07:48:36;;;;;;;10.45;6.75;;;;;;;20.95;100.00;92591.19;5050349;28;20060;-74
2022/08/21 07:51:07;;;;;;;11.52;6.68;;;;;;;21.26;100.00;92588.00;5050446;28;20052;-74
2022/08/21 07:53:35;;;;;;;9.73;6.95;;;;;;;20.89;100.00;92605.38;5049942;28;20572;-74
2022/08/21 07:56:03;;;;;;;20.38;9.75;;;;;;;20.63;100.00;92587.53;5050369;28;20287;-74
2022/08/21 07:58:30;;;;;;;12.50;8.15;;;;;;;20.30;100.00;92590.94;5050046;28;20049;-74
2022/08/21 08:00:56;;;;;;;13.80;7.95;;;;;;;20.74;100.00;92588.13;5049932;28;20550;-74
2022/08/21 08:03:23;;;;;;;11.80;7.22;;;;;;;21.13;100.00;92573.09;5038260;28;20045;-74
2022/08/21 08:05:50;;;;;;;8.93;6.57;;;;;;;21.79;100.00;92600.81;5028582;28;20049;-74
2022/08/21 08:08:17;;;;;;;12.55;6.38;;;;;;;22.09;100.00;92606.41;5041349;28;20106;-74
2022/08/21 08:10:46;;;;;;;10.98;6.20;;;;;;;22.28;100.00;92599.16;5049786;28;20481;-74
2022/08/21 08:13:13;;;;;;;10.02;5.90;;;;;;;22.39;100.00;92612.00;5050074;28;20049;-74
2022/08/21 08:15:40;;;;;;;7.35;5.65;;;;;;;22.53;100.00;92588.41;5049697;28;20045;-74
2022/08/21 08:18:06;;;;;;;9.73;5.70;;;;;;;22.78;100.00;92602.69;5049554;28;20492;-74
2022/08/21 08:20:33;;;;;;;6.45;4.85;;;;;;;23.15;100.00;92610.38;5039278;28;20096;-74
2022/08/21 08:23:00;;;;;;;8.95;5.22;;;;;;;23.37;100.00;92611.41;5049537;28;20045;-74
2022/08/21 08:25:28;;;;;;;6.75;4.82;;;;;;;23.59;100.00;92607.16;5049324;28;20045;-74
2022/08/21 08:27:56;;;;;;;8.90;5.22;;;;;;;23.61;100.00;92607.63;5032929;28;20046;-74
2022/08/21 08:30:23;;;;;;;9.60;5.28;;;;;;;23.88;100.00;92611.03;5009349;28;20125;-74
2022/08/21 08:32:50;;;;;;;9.38;4.55;;;;;;;24.11;100.00;92611.69;5009390;28;20468;-74
2022/08/21 08:35:17;;;;;;;8.68;5.40;;;;;;;24.00;100.00;92608.59;5009018;28;20532;-74
2022/08/21 08:37:47;;;;;;;7.28;5.25;;;;;;;24.15;97.67;92599.50;5024943;28;20359;-75
2022/08/21 08:40:19;;;;;;;6.38;4.47;;;;;;;23.97;100.00;92603.94;5015587;28;20037;-74
2022/08/21 08:42:50;;;;;;;6.88;4.72;;;;;;;24.03;100.00;92602.72;5009665;28;20105;-74
2022/08/21 08:45:21;;;;;;;6.88;4.22;;;;;;;23.77;99.66;92602.69;5016298;28;20065;-74
2022/08/21 08:47:55;;;;;;;8.60;5.93;;;;;;;23.86;99.59;92605.31;5027779;28;20542;-73
2022/08/21 08:50:28;;;;;;;7.45;4.90;;;;;;;23.14;99.99;92600.25;5049101;28;20049;-74
2022/08/21 08:53:02;;;;;;;8.95;5.20;;;;;;;23.08;100.00;92602.22;5037824;28;20446;-74
2022/08/21 08:55:35;;;;;;;7.13;4.80;;;;;;;23.20;100.00;92585.91;5029469;28;20583;-74
2022/08/21 08:58:03;;;;;;;8.25;4.65;;;;;;;23.07;100.00;92575.25;5028398;28;20041;-74
2022/08/21 09:00:32;;;;;;;8.68;5.28;;;;;;;22.79;100.00;92596.41;5040623;28;20056;-74
2022/08/21 09:03:02;;;;;;;9.73;4.80;;;;;;;23.05;100.00;92590.50;5049121;28;20037;-74
2022/08/21 09:05:39;;;;;;;11.25;4.88;;;;;;;23.45;100.00;92592.31;5048506;28;20560;-74
2022/08/21 09:08:21;;;;;;;8.70;4.60;;;;;;;24.00;100.00;92598.09;5048714;28;20063;-74
2022/08/21 09:11:01;;;;;;;6.53;4.22;;;;;;;24.24;93.96;92596.09;5048932;28;20045;-74
2022/08/21 09:13:37;;;;;;;8.00;4.57;;;;;;;24.68;99.51;92590.75;5048875;28;20037;-75
2022/08/21 09:16:13;;;;;;;8.00;4.65;;;;;;;25.07;94.29;92590.81;5028588;28;20057;-75
2022/08/21 09:18:53;;;;;;;7.93;4.97;;;;;;;25.43;93.49;92578.25;5028590;28;20048;-75
2022/08/21 09:21:29;;;;;;;7.38;4.65;;;;;;;25.91;93.56;92583.41;5047125;28;20468;-74
2022/08/21 09:24:02;;;;;;;7.40;4.55;;;;;;;26.12;86.05;92586.00;5048954;28;20053;-75
2022/08/21 09:26:35;;;;;;;10.50;5.20;;;;;;;26.39;90.63;92579.44;5048521;28;20045;-75
2022/08/21 09:29:02;;;;;;;9.27;5.00;;;;;;;26.53;85.14;92586.28;5048959;28;20095;-75
2022/08/21 09:31:34;;;;;;;7.78;4.10;;;;;;;26.54;84.64;92582.56;5048399;28;20045;-75
2022/08/21 09:34:04;;;;;;;8.20;4.40;;;;;;;26.00;83.52;92578.81;5049017;28;20464;-74
2022/08/21 09:36:39;;;;;;;11.95;5.28;;;;;;;26.24;87.90;92575.53;5048908;28;20049;-75
2022/08/21 09:39:07;;;;;;;7.93;4.65;;;;;;;26.37;84.80;92572.94;5048703;28;20424;-75
2022/08/21 09:41:36;;;;;;;7.70;4.72;;;;;;;26.25;82.67;92578.97;5048723;28;20049;-75
2022/08/21 09:44:04;;;;;;;9.45;5.25;;;;;;;26.32;84.82;92567.88;5048330;28;20096;-75
2022/08/21 09:46:33;;;;;;;8.30;4.60;;;;;;;26.36;83.83;92563.50;5048441;28;20048;-75
2022/08/21 09:49:02;;;;;;;7.15;4.90;;;;;;;26.53;82.88;92550.16;5048760;28;20123;-75
2022/08/21 09:51:32;;;;;;;8.25;4.28;;;;;;;26.53;79.08;92567.84;5048500;28;20052;-75
2022/08/21 09:54:16;;;;;;;13.00;5.68;;;;;;;26.68;82.06;92567.22;5048791;28;20370;-75
2022/08/21 09:59:40;;;;;;;6.80;4.18;;;;;;;27.00;82.56;92552.78;5048483;28;20155;-74
2022/08/21 10:02:24;;;;;;;7.97;4.63;;;;;;;27.14;81.29;92552.44;5050426;28;20181;-75
2022/08/21 10:04:53;;;;;;;7.32;4.43;;;;;;;27.19;77.91;92549.59;5052379;28;20060;-75
2022/08/21 10:07:22;;;;;;;6.13;4.50;;;;;;;27.05;79.27;92548.06;5052559;28;20041;-75
2022/08/21 10:09:59;;;;;;;7.45;4.03;;;;;;;26.54;73.47;92520.13;5034867;28;20045;-75
2022/08/21 10:12:34;;;;;;;6.60;4.60;;;;;;;26.93;74.91;92524.31;5050852;28;20041;-74
2022/08/21 10:15:09;;;;;;;8.23;4.72;;;;;;;27.41;79.57;92537.03;5052718;28;20095;-75
2022/08/21 10:17:48;;;;;;;8.15;5.20;;;;;;;27.55;76.68;92534.06;5052236;28;20111;-74
2022/08/21 10:20:23;;;;;;;9.95;5.22;;;;;;;27.87;75.50;92521.03;5051872;28;20048;-76
2022/08/21 10:23:03;;;;;;;6.53;4.53;;;;;;;28.16;74.06;92524.41;5043751;28;20045;-75
2022/08/21 10:25:38;;;;;;;7.47;5.22;;;;;;;28.29;74.66;92517.22;5043952;28;20049;-75
2022/08/21 10:28:12;;;;;;;9.40;5.17;;;;;;;28.56;74.07;92529.94;5044138;28;20049;-75
2022/08/21 10:30:47;;;;;;;7.43;4.68;;;;;;;28.49;71.67;92499.63;5040912;28;20290;-74
2022/08/21 10:33:34;;;;;;;8.50;4.78;;;;;;;28.30;68.23;92523.25;5048663;28;20500;-74
2022/08/21 10:36:11;;;;;;;10.20;4.22;;;;;;;28.43;67.77;92490.41;5051561;28;20513;-74
2022/08/21 10:39:06;;;;;;;6.28;4.50;;;;;;;28.47;66.50;92509.72;5051479;28;20096;-74
2022/08/21 10:41:58;;;;;;;8.10;4.55;;;;;;;28.84;69.81;92498.16;5034805;28;20124;-74
2022/08/21 10:44:33;;;;;;;8.85;3.85;;;;;;;29.05;69.01;92499.78;5036754;28;20053;-74
2022/08/21 10:47:06;;;;;;;7.13;3.90;;;;;;;29.20;67.20;92496.34;5030966;28;20061;-73
2022/08/21 10:49:41;;;;;;;7.55;4.07;;;;;;;29.31;65.50;92501.88;5030979;28;20394;-73
2022/08/21 10:52:33;;;;;;;6.45;4.00;;;;;;;29.45;66.73;92495.34;5030945;28;20053;-73
2022/08/21 10:55:07;;;;;;;7.38;4.03;;;;;;;29.41;65.08;92491.84;5030853;28;20112;-74
2022/08/21 10:57:41;;;;;;;4.88;3.47;;;;;;;28.59;58.29;92498.34;5042328;28;20048;-74
2022/08/21 11:00:10;;;;;;;8.00;4.18;;;;;;;28.93;64.56;92488.19;5050955;28;20508;-73
2022/08/21 11:02:41;;;;;;;6.32;4.05;;;;;;;29.24;63.04;92490.38;5051445;28;20118;-73
2022/08/21 11:05:15;;;;;;;8.65;3.97;;;;;;;29.36;59.92;92473.59;5050753;28;20497;-74
2022/08/21 11:07:48;;;;;;;9.25;4.68;;;;;;;28.16;61.02;92476.88;5050974;28;20099;-73
2022/08/21 11:10:21;;;;;;;10.20;3.40;;;;;;;27.99;61.65;92468.19;5050517;28;20489;-73
2022/08/21 11:12:54;;;;;;;7.40;3.65;;;;;;;28.15;59.97;92465.56;5049782;28;20048;-73
2022/08/21 11:15:41;;;;;;;9.10;5.00;;;;;;;28.63;64.20;92461.41;5051152;28;20191;-74
2022/08/21 11:18:27;;;;;;;9.00;4.18;;;;;;;28.99;59.83;92456.97;5039322;28;20049;-74
2022/08/21 11:21:20;;;;;;;9.38;4.35;;;;;;;29.42;62.17;92457.09;5033401;28;20041;-74
2022/08/21 11:23:51;;;;;;;7.70;3.83;;;;;;;29.69;58.59;92449.34;5030972;28;20062;-73
2022/08/21 11:26:30;;;;;;;9.15;3.88;;;;;;;29.92;60.17;92439.91;5030522;28;20456;-74
2022/08/21 11:29:05;;;;;;;5.35;3.35;;;;;;;30.07;60.03;92433.75;5030863;28;20041;-74
2022/08/21 11:31:44;;;;;;;5.45;4.05;;;;;;;30.16;57.67;92438.09;5030695;28;20492;-74
2022/08/21 11:34:23;;;;;;;8.80;4.18;;;;;;;30.17;56.50;92443.00;5030562;28;20080;-74
2022/08/21 11:37:03;;;;;;;5.47;3.78;;;;;;;30.17;57.17;92440.38;5030787;28;20104;-73
2022/08/21 11:39:39;;;;;;;7.13;5.10;;;;;;;30.18;58.58;92449.88;5032035;28;20124;-73